Pagina principale
METAR-TAF:

METAR-TAF

Aeroporti :

Aeroporto di Dakar-Léopold Sedar Senghor

Dakar, Senegal

latitudine: 14-44N, longitudine: 017-30W, altezza: 27 m

Osservazione

Il bollettino è stato emesso 1 ora e 52 minuti fa, alle 12:00 UTC
Vento 14 kt da nord
Temperature 25°C
Umidità 69%
Pressione 1013 hPa
Visibilità 10 km o più
nessuna nube inferiore a 1500 m e nessun cumulonembo

METAR: GOOY 241200Z 36014KT CAVOK 25/19 Q1013

Ora: 13:52 (13:52 UTC)

Previsione

Il bollettino è stato emesso 2 ore e 22 minuti fa, alle 11:30 UTC
Previsione valida dal 24 alle 12 UTC al 25 alle 18 UTC
Vento 15 kt da nord
Visibilità 10 km o più
nessuna nube inferiore a 1500 m e nessun cumulonembo

TAF: GOOY 241130Z 2412/2518 35015KT CAVOK

Osservazioni e previsioni meteorologiche di più di 4000 aeroporti (messaggi METAR e TAF).

Le stazioni disponibili sono rappresentate dai dischi gialli e rossi sulla carta.

Puntare il mouse per vedere il nome della stazione.

Clicca sopra per visualizzare le osservazioni e previsioni meteorologiche.

Per cambiare la mappa : fare clic sui pulsanti verdi con una croce nera per ingrandire, il pulsante verde con un trattino per diminuire, o sulla freccia verde per le mappe adiacenti.


METAR-TAF: